createdAt,value
2023-05-13T00:01:11.121Z,99.90
2023-05-13T00:03:38.216Z,99.90
2023-05-13T00:06:05.122Z,99.90
2023-05-13T00:08:32.176Z,99.90
2023-05-13T00:10:58.789Z,99.90
2023-05-13T00:13:25.879Z,99.90
2023-05-13T00:15:52.807Z,99.90
2023-05-13T00:18:19.964Z,99.90
2023-05-13T00:20:46.597Z,99.90
2023-05-13T00:23:14.741Z,99.90
2023-05-13T00:25:41.964Z,99.90
2023-05-13T00:28:09.042Z,99.90
2023-05-13T00:30:36.927Z,99.90
2023-05-13T00:33:03.845Z,99.90
2023-05-13T00:35:31.085Z,99.90
2023-05-13T00:37:57.738Z,99.90
2023-05-13T00:40:25.266Z,99.90
2023-05-13T00:42:52.202Z,99.90
2023-05-13T00:45:20.381Z,99.90
2023-05-13T00:47:48.592Z,99.90
2023-05-13T00:50:16.314Z,99.90
2023-05-13T00:52:43.374Z,99.90
2023-05-13T00:55:11.234Z,99.90
2023-05-13T00:57:39.981Z,99.90
2023-05-13T01:00:08.331Z,99.90
2023-05-13T01:03:02.010Z,99.90
2023-05-13T01:05:57.673Z,99.90
2023-05-13T01:08:29.179Z,99.90
2023-05-13T01:11:09.849Z,99.90
2023-05-13T01:13:42.950Z,99.90
2023-05-13T01:16:27.164Z,99.90
2023-05-13T01:18:58.459Z,99.90
2023-05-13T01:21:27.206Z,99.90
2023-05-13T01:23:54.602Z,99.90
2023-05-13T01:26:24.359Z,99.90
2023-05-13T01:28:51.404Z,99.90
2023-05-13T01:31:21.310Z,99.90
2023-05-13T01:33:49.394Z,99.90
2023-05-13T01:36:17.604Z,99.90
2023-05-13T01:38:44.880Z,99.90
2023-05-13T01:41:12.214Z,99.90
2023-05-13T01:43:38.959Z,99.90
2023-05-13T01:46:12.641Z,99.90
2023-05-13T01:48:39.499Z,99.90
2023-05-13T01:51:07.200Z,99.90
2023-05-13T01:53:34.626Z,99.90
2023-05-13T01:56:01.374Z,99.90
2023-05-13T01:58:29.100Z,99.90
2023-05-13T02:00:55.814Z,99.90
2023-05-13T02:03:23.164Z,99.90
2023-05-13T02:05:49.896Z,99.90
2023-05-13T02:08:17.907Z,99.90
2023-05-13T02:10:44.589Z,99.90
2023-05-13T02:13:12.331Z,99.90
2023-05-13T02:15:39.270Z,99.90
2023-05-13T02:18:06.561Z,99.90
2023-05-13T02:20:33.249Z,99.90
2023-05-13T02:23:01.093Z,99.90
2023-05-13T02:25:28.019Z,99.90
2023-05-13T02:27:55.350Z,99.90
2023-05-13T02:30:26.744Z,99.90
2023-05-13T02:32:54.855Z,99.90
2023-05-13T02:35:22.364Z,99.90
2023-05-13T02:37:49.344Z,99.90
2023-05-13T02:40:17.243Z,99.90
2023-05-13T02:42:45.812Z,99.90
2023-05-13T02:45:14.518Z,99.90
2023-05-13T02:47:45.070Z,99.90
2023-05-13T02:50:12.765Z,99.90
2023-05-13T02:52:40.425Z,99.90
2023-05-13T02:55:09.527Z,99.90
2023-05-13T02:57:40.047Z,99.90
2023-05-13T03:00:08.207Z,99.90
2023-05-13T03:02:36.194Z,99.90
2023-05-13T03:05:04.039Z,99.90
2023-05-13T03:07:30.672Z,99.90
2023-05-13T03:09:58.791Z,99.90
2023-05-13T03:12:25.493Z,99.90
2023-05-13T03:14:52.745Z,99.90
2023-05-13T03:17:19.462Z,99.90
2023-05-13T03:19:47.219Z,99.90
2023-05-13T03:22:14.445Z,99.90
2023-05-13T03:24:42.992Z,99.90
2023-05-13T03:27:10.116Z,99.90
2023-05-13T03:29:39.151Z,99.90
2023-05-13T03:32:06.605Z,99.90
2023-05-13T03:34:36.489Z,99.90
2023-05-13T03:37:04.096Z,99.90
2023-05-13T03:39:31.904Z,99.90
2023-05-13T03:41:58.991Z,99.90
2023-05-13T03:44:26.049Z,99.90
2023-05-13T03:46:53.487Z,99.90
2023-05-13T03:49:20.179Z,99.90
2023-05-13T03:51:47.437Z,99.90
2023-05-13T03:54:14.228Z,99.90
2023-05-13T03:56:41.509Z,99.90
2023-05-13T03:59:08.130Z,99.90
2023-05-13T04:01:36.555Z,99.90
2023-05-13T04:04:03.319Z,99.90
2023-05-13T04:06:32.137Z,99.90
2023-05-13T04:08:58.811Z,99.90
2023-05-13T04:11:26.186Z,99.90
2023-05-13T04:13:54.485Z,99.90
2023-05-13T04:16:21.856Z,99.90
2023-05-13T04:18:48.577Z,99.90
2023-05-13T04:21:16.010Z,99.90
2023-05-13T04:23:42.684Z,99.90
2023-05-13T04:26:09.972Z,99.90
2023-05-13T04:28:36.651Z,99.90
2023-05-13T04:31:03.871Z,99.90
2023-05-13T04:33:34.501Z,99.90
2023-05-13T04:36:01.243Z,99.90
2023-05-13T04:38:28.556Z,99.90
2023-05-13T04:40:55.262Z,99.90
2023-05-13T04:43:30.650Z,99.90
2023-05-13T04:45:59.105Z,99.90
2023-05-13T04:48:28.216Z,99.90
2023-05-13T04:50:58.165Z,99.90
2023-05-13T04:53:25.818Z,99.90
2023-05-13T04:56:00.426Z,99.90
2023-05-13T04:58:29.161Z,99.90
2023-05-13T05:00:57.214Z,99.90
2023-05-13T05:03:25.058Z,99.90
2023-05-13T05:05:51.849Z,99.90
2023-05-13T05:08:19.510Z,99.90
2023-05-13T05:10:47.817Z,99.90
2023-05-13T05:13:15.993Z,99.90
2023-05-13T05:15:43.823Z,99.90
2023-05-13T05:18:11.951Z,99.90
2023-05-13T05:20:39.643Z,99.90
2023-05-13T05:23:12.777Z,99.90
2023-05-13T05:25:39.478Z,99.90
2023-05-13T05:28:06.856Z,99.90
2023-05-13T05:30:39.235Z,99.90
2023-05-13T05:33:11.549Z,99.90
2023-05-13T05:35:40.169Z,99.90
2023-05-13T05:38:11.549Z,99.90
2023-05-13T05:40:41.976Z,99.40
2023-05-13T05:43:11.266Z,98.50
2023-05-13T05:45:39.212Z,96.90
2023-05-13T05:48:08.382Z,96.00
2023-05-13T05:50:36.434Z,95.10
2023-05-13T05:53:07.355Z,94.00
2023-05-13T05:55:36.758Z,94.30
2023-05-13T05:58:05.765Z,94.00
2023-05-13T06:00:34.682Z,92.90
2023-05-13T06:03:02.267Z,92.60
2023-05-13T06:05:28.984Z,92.50
2023-05-13T06:07:56.717Z,92.00
2023-05-13T06:10:23.481Z,91.10
2023-05-13T06:12:51.620Z,90.40
2023-05-13T06:15:18.346Z,90.50
2023-05-13T06:17:45.643Z,89.90
2023-05-13T06:20:12.619Z,88.90
2023-05-13T06:22:41.321Z,87.80
2023-05-13T06:25:08.412Z,87.40
2023-05-13T06:27:36.979Z,86.80
2023-05-13T06:30:04.058Z,85.50
2023-05-13T06:32:31.319Z,84.90
2023-05-13T06:34:58.103Z,83.20
2023-05-13T06:37:25.780Z,84.40
2023-05-13T06:39:52.506Z,83.50
2023-05-13T06:42:19.717Z,82.50
2023-05-13T06:44:54.580Z,83.40
2023-05-13T06:47:27.503Z,81.70
2023-05-13T06:49:54.197Z,82.70
2023-05-13T06:52:20.797Z,83.40
2023-05-13T06:54:48.449Z,83.00
2023-05-13T06:57:15.037Z,82.00
2023-05-13T06:59:42.397Z,82.40
2023-05-13T07:02:10.160Z,82.60
2023-05-13T07:04:37.288Z,81.80
2023-05-13T07:07:04.381Z,82.60
2023-05-13T07:09:31.603Z,81.80
2023-05-13T07:11:58.529Z,81.60
2023-05-13T07:14:26.034Z,82.30
2023-05-13T07:16:53.431Z,81.50
2023-05-13T07:19:20.207Z,82.30
2023-05-13T07:21:47.456Z,82.10
2023-05-13T07:24:14.481Z,83.10
2023-05-13T07:26:42.262Z,82.00
2023-05-13T07:29:08.934Z,83.20
2023-05-13T07:31:35.911Z,81.70
2023-05-13T07:34:03.648Z,81.90
2023-05-13T07:36:30.587Z,80.70
2023-05-13T07:38:58.044Z,81.40
2023-05-13T07:41:24.741Z,81.60
2023-05-13T07:43:51.953Z,84.00
2023-05-13T07:46:18.546Z,82.00
2023-05-13T07:48:46.109Z,82.10
2023-05-13T07:51:12.710Z,81.40
2023-05-13T07:53:40.035Z,82.70
2023-05-13T07:56:07.734Z,81.40
2023-05-13T07:58:35.033Z,82.40
2023-05-13T08:01:01.750Z,81.50
2023-05-13T08:03:29.149Z,83.20
2023-05-13T08:05:55.907Z,83.00
2023-05-13T08:08:23.235Z,83.00
2023-05-13T08:10:49.856Z,83.70
2023-05-13T08:13:17.084Z,82.70
2023-05-13T08:15:43.762Z,85.60
2023-05-13T08:18:11.145Z,86.10
2023-05-13T08:20:37.941Z,87.40
2023-05-13T08:23:05.161Z,86.70
2023-05-13T08:25:31.788Z,88.50
2023-05-13T08:27:59.173Z,90.10
2023-05-13T08:30:25.906Z,90.20
2023-05-13T08:32:53.386Z,90.80
2023-05-13T08:35:20.287Z,91.70
2023-05-13T08:37:47.779Z,91.40
2023-05-13T08:40:15.145Z,91.90
2023-05-13T08:42:43.413Z,91.60
2023-05-13T08:45:11.537Z,91.40
2023-05-13T08:47:59.837Z,91.40
2023-05-13T08:50:27.474Z,91.30
2023-05-13T08:52:56.056Z,91.70
2023-05-13T08:55:24.109Z,92.30
2023-05-13T08:57:52.050Z,92.20
2023-05-13T09:00:21.395Z,94.00
2023-05-13T09:02:49.858Z,91.90
2023-05-13T09:05:18.337Z,92.80
2023-05-13T09:07:45.456Z,92.80
2023-05-13T09:10:12.690Z,92.20
2023-05-13T09:12:46.238Z,92.40
2023-05-13T09:15:19.614Z,93.30
2023-05-13T09:18:05.307Z,92.30
2023-05-13T09:20:34.086Z,93.20
2023-05-13T09:23:09.319Z,92.90
2023-05-13T09:25:37.612Z,92.90
2023-05-13T09:28:07.780Z,92.20
2023-05-13T09:30:36.739Z,92.30
2023-05-13T09:33:15.281Z,92.70
2023-05-13T09:35:52.480Z,92.70
2023-05-13T09:38:24.965Z,93.20
2023-05-13T09:40:52.260Z,93.50
2023-05-13T09:43:21.834Z,92.90
2023-05-13T09:45:52.456Z,92.80
2023-05-13T09:48:23.075Z,92.00
2023-05-13T09:50:51.114Z,91.10
2023-05-13T09:53:18.977Z,91.60
2023-05-13T09:55:51.109Z,91.30
2023-05-13T09:58:20.132Z,90.70
2023-05-13T10:00:48.116Z,91.20
2023-05-13T10:03:15.936Z,90.80
2023-05-13T10:05:43.846Z,91.30
2023-05-13T10:08:13.076Z,90.80
2023-05-13T10:10:41.653Z,91.40
2023-05-13T10:13:13.402Z,91.30
2023-05-13T10:15:51.496Z,91.90
2023-05-13T10:18:19.854Z,91.50
2023-05-13T10:20:47.002Z,90.90
2023-05-13T10:23:15.415Z,90.60
2023-05-13T10:25:43.619Z,90.80
2023-05-13T10:28:10.670Z,90.20
2023-05-13T10:30:39.250Z,91.40
2023-05-13T10:33:06.158Z,90.90
2023-05-13T10:35:38.532Z,91.20
2023-05-13T10:38:16.278Z,90.70
2023-05-13T10:41:01.418Z,90.00
2023-05-13T10:43:30.526Z,87.60
2023-05-13T10:46:00.189Z,86.40
2023-05-13T10:48:38.071Z,87.60
2023-05-13T10:51:08.030Z,89.80
2023-05-13T10:53:55.305Z,85.10
2023-05-13T10:56:28.173Z,84.80
2023-05-13T10:58:59.939Z,86.50
2023-05-13T11:01:43.923Z,83.40
2023-05-13T11:04:20.323Z,82.00
2023-05-13T11:06:50.777Z,81.70
2023-05-13T11:09:20.747Z,82.30
2023-05-13T11:11:49.083Z,81.80
2023-05-13T11:14:30.554Z,83.00
2023-05-13T11:17:00.231Z,80.90
2023-05-13T11:19:47.936Z,83.10
2023-05-13T11:22:18.751Z,80.10
2023-05-13T11:25:02.797Z,80.90
2023-05-13T11:27:37.587Z,82.10
2023-05-13T11:30:21.906Z,80.70
2023-05-13T11:32:52.206Z,80.80
2023-05-13T11:35:30.588Z,81.50
2023-05-13T11:38:00.265Z,78.30
2023-05-13T11:40:33.634Z,80.50
2023-05-13T11:43:01.218Z,79.80
2023-05-13T11:45:30.108Z,77.80
2023-05-13T11:47:57.547Z,78.80
2023-05-13T11:50:30.597Z,77.80
2023-05-13T11:52:59.177Z,76.50
2023-05-13T11:55:31.905Z,77.00
2023-05-13T11:57:59.355Z,78.30
2023-05-13T12:00:34.755Z,80.40
2023-05-13T12:03:11.589Z,80.20
2023-05-13T12:05:39.845Z,80.90
2023-05-13T12:08:10.113Z,80.60
2023-05-13T12:10:43.969Z,79.30
2023-05-13T12:13:10.970Z,77.80
2023-05-13T12:15:38.385Z,77.40
2023-05-13T12:18:05.381Z,78.80
2023-05-13T12:20:33.774Z,78.10
2023-05-13T12:23:01.412Z,80.40
2023-05-13T12:25:42.089Z,79.60
2023-05-13T12:28:22.808Z,79.80
2023-05-13T12:30:50.680Z,76.60
2023-05-13T12:33:38.676Z,78.80
2023-05-13T12:36:35.913Z,77.10
2023-05-13T12:39:07.035Z,79.10
2023-05-13T12:41:36.427Z,78.40
2023-05-13T12:44:07.442Z,77.90
2023-05-13T12:46:35.554Z,77.40
2023-05-13T12:49:04.158Z,76.80
2023-05-13T12:51:31.865Z,76.40
2023-05-13T12:53:58.589Z,75.50
2023-05-13T12:56:26.192Z,76.70
2023-05-13T12:58:54.001Z,77.40
2023-05-13T13:01:21.585Z,77.40
2023-05-13T13:03:48.375Z,77.10
2023-05-13T13:06:15.976Z,77.90
2023-05-13T13:08:42.688Z,76.10
2023-05-13T13:11:10.591Z,76.80
2023-05-13T13:13:39.239Z,78.40
2023-05-13T13:16:07.554Z,78.70
2023-05-13T13:18:34.208Z,78.70
2023-05-13T13:21:01.497Z,78.40
2023-05-13T13:23:28.436Z,76.40
2023-05-13T13:25:55.828Z,77.80
2023-05-13T13:28:22.790Z,79.00
2023-05-13T13:30:49.545Z,79.10
2023-05-13T13:33:17.039Z,79.30
2023-05-13T13:35:45.399Z,78.80
2023-05-13T13:38:13.417Z,79.90
2023-05-13T13:40:40.281Z,79.30
2023-05-13T13:43:08.412Z,79.90
2023-05-13T13:45:35.283Z,77.60
2023-05-13T13:48:03.358Z,76.70
2023-05-13T13:50:30.160Z,76.80
2023-05-13T13:52:57.438Z,77.50
2023-05-13T13:55:24.390Z,77.40
2023-05-13T13:57:52.352Z,77.20
2023-05-13T14:00:19.530Z,76.80
2023-05-13T14:02:46.992Z,76.70
2023-05-13T14:05:13.829Z,77.50
2023-05-13T14:07:41.335Z,76.40
2023-05-13T14:10:08.822Z,76.20
2023-05-13T14:12:36.554Z,77.90
2023-05-13T14:15:03.634Z,76.50
2023-05-13T14:17:32.512Z,75.90
2023-05-13T14:19:59.130Z,75.70
2023-05-13T14:22:26.502Z,74.10
2023-05-13T14:24:53.238Z,74.80
2023-05-13T14:27:21.875Z,75.90
2023-05-13T14:29:48.954Z,76.70
2023-05-13T14:32:16.439Z,75.40
2023-05-13T14:34:43.119Z,75.50
2023-05-13T14:37:10.111Z,75.20
2023-05-13T14:39:36.889Z,74.40
2023-05-13T14:42:04.546Z,75.00
2023-05-13T14:44:31.912Z,74.80
2023-05-13T14:46:58.915Z,74.20
2023-05-13T14:49:26.231Z,74.30
2023-05-13T14:51:52.898Z,73.50
2023-05-13T14:54:20.220Z,74.80
2023-05-13T14:56:47.019Z,74.60
2023-05-13T14:59:13.979Z,78.50
2023-05-13T15:01:40.771Z,81.30
2023-05-13T15:04:08.016Z,84.20
2023-05-13T15:06:36.417Z,84.50
2023-05-13T15:09:04.032Z,84.70
2023-05-13T15:11:30.751Z,85.90
2023-05-13T15:13:57.996Z,91.30
2023-05-13T15:16:24.707Z,94.80
2023-05-13T15:18:52.004Z,96.70
2023-05-13T15:21:18.620Z,96.90
2023-05-13T15:23:45.858Z,98.50
2023-05-13T15:26:12.626Z,99.90
2023-05-13T15:28:39.937Z,99.90
2023-05-13T15:31:06.753Z,99.90
2023-05-13T15:33:34.148Z,99.90
2023-05-13T15:36:01.308Z,99.90
2023-05-13T15:38:28.672Z,99.90
2023-05-13T15:40:55.378Z,99.90
2023-05-13T15:43:22.812Z,99.90
2023-05-13T15:45:50.033Z,99.90
2023-05-13T15:48:17.915Z,99.90
2023-05-13T15:50:45.273Z,99.90
2023-05-13T15:53:11.876Z,99.90
2023-05-13T15:55:39.710Z,99.90
2023-05-13T15:58:06.933Z,99.90
2023-05-13T16:00:34.362Z,99.90
2023-05-13T16:03:01.475Z,99.90
2023-05-13T16:05:28.957Z,99.90
2023-05-13T16:07:57.062Z,99.90
2023-05-13T16:10:24.404Z,99.90
2023-05-13T16:12:51.484Z,99.90
2023-05-13T16:15:18.751Z,99.90
2023-05-13T16:17:45.499Z,99.90
2023-05-13T16:20:13.614Z,99.90
2023-05-13T16:22:40.400Z,99.90
2023-05-13T16:25:09.218Z,99.90
2023-05-13T16:27:36.864Z,99.90
2023-05-13T16:32:56.002Z,99.90
2023-05-13T16:35:23.041Z,99.90
2023-05-13T16:37:50.728Z,99.90
2023-05-13T16:40:18.014Z,99.90
2023-05-13T16:42:45.078Z,99.90
2023-05-13T16:45:12.752Z,99.90
2023-05-13T16:47:39.414Z,99.90
2023-05-13T16:50:08.786Z,99.90
2023-05-13T16:52:35.664Z,99.90
2023-05-13T16:55:03.261Z,99.90
2023-05-13T16:57:29.928Z,99.90
2023-05-13T16:59:57.283Z,99.90
2023-05-13T17:02:24.083Z,99.90
2023-05-13T17:04:51.578Z,99.90
2023-05-13T17:07:18.183Z,99.90
2023-05-13T17:09:45.682Z,99.90
2023-05-13T17:12:12.363Z,99.90
2023-05-13T17:14:40.022Z,99.90
2023-05-13T17:17:06.861Z,99.90
2023-05-13T17:19:34.277Z,99.90
2023-05-13T17:22:01.072Z,99.90
2023-05-13T17:24:29.706Z,99.90
2023-05-13T17:26:56.580Z,99.90
2023-05-13T17:29:25.796Z,99.90
2023-05-13T17:31:52.977Z,99.90
2023-05-13T17:34:20.588Z,99.90
2023-05-13T17:36:49.968Z,99.90
2023-05-13T17:39:17.585Z,99.90
2023-05-13T17:41:44.212Z,99.90
2023-05-13T17:44:11.627Z,99.90
2023-05-13T17:46:38.228Z,99.90
2023-05-13T17:49:05.613Z,99.90
2023-05-13T17:51:32.320Z,99.90
2023-05-13T17:53:59.551Z,99.90
2023-05-13T17:56:26.570Z,99.90
2023-05-13T17:58:53.884Z,99.90
2023-05-13T18:01:21.581Z,99.90
2023-05-13T18:03:49.045Z,99.90
2023-05-13T18:06:15.929Z,99.90
2023-05-13T18:08:43.256Z,99.90
2023-05-13T18:11:10.014Z,99.90
2023-05-13T18:13:37.470Z,99.90
2023-05-13T18:16:05.826Z,99.90
2023-05-13T18:18:33.168Z,99.90
2023-05-13T18:21:00.325Z,99.90
2023-05-13T18:23:27.553Z,99.90
2023-05-13T18:25:56.172Z,99.90
2023-05-13T18:28:24.230Z,99.90
2023-05-13T18:30:51.031Z,99.90
2023-05-13T18:33:20.393Z,99.90
2023-05-13T18:35:47.191Z,99.90
2023-05-13T18:38:14.426Z,99.90
2023-05-13T18:40:41.077Z,99.90
2023-05-13T18:43:08.323Z,99.90
2023-05-13T18:45:35.151Z,99.90
2023-05-13T18:48:02.485Z,99.90
2023-05-13T18:50:29.175Z,99.90
2023-05-13T18:52:56.558Z,99.90
2023-05-13T18:55:23.175Z,99.90
2023-05-13T18:57:50.990Z,99.90
2023-05-13T19:00:18.352Z,99.90
2023-05-13T19:02:45.679Z,99.90
2023-05-13T19:05:12.495Z,99.90
2023-05-13T19:07:39.748Z,99.90
2023-05-13T19:10:06.955Z,99.90
2023-05-13T19:12:34.262Z,99.90
2023-05-13T19:15:00.985Z,99.90
2023-05-13T19:17:28.410Z,99.90
2023-05-13T19:19:55.205Z,99.90
2023-05-13T19:22:22.494Z,99.90
2023-05-13T19:24:49.164Z,99.90
2023-05-13T19:27:16.447Z,99.90
2023-05-13T19:29:43.097Z,99.90
2023-05-13T19:32:10.316Z,99.90
2023-05-13T19:34:36.914Z,99.90
2023-05-13T19:37:05.345Z,99.90
2023-05-13T19:39:32.581Z,99.90
2023-05-13T19:41:59.397Z,99.90
2023-05-13T19:44:28.197Z,99.90
2023-05-13T19:46:55.379Z,99.90
2023-05-13T19:49:22.886Z,99.90
2023-05-13T19:51:49.540Z,99.90
2023-05-13T19:54:16.939Z,99.90
2023-05-13T19:56:43.576Z,99.90
2023-05-13T19:59:10.819Z,99.90
2023-05-13T20:01:37.755Z,99.90
2023-05-13T20:04:05.338Z,99.90
2023-05-13T20:06:32.515Z,99.90
2023-05-13T20:09:01.033Z,99.90
2023-05-13T20:11:27.977Z,99.90
2023-05-13T20:13:56.014Z,99.90
2023-05-13T20:16:23.346Z,99.90
2023-05-13T20:18:51.124Z,99.90
2023-05-13T20:21:17.865Z,99.90
2023-05-13T20:23:45.068Z,99.90
2023-05-13T20:26:11.690Z,99.90
2023-05-13T20:28:38.937Z,99.90
2023-05-13T20:31:05.664Z,99.90
2023-05-13T20:33:33.163Z,99.90
2023-05-13T20:35:59.761Z,99.90
2023-05-13T20:38:27.455Z,99.90
2023-05-13T20:40:54.345Z,99.90
2023-05-13T20:43:21.565Z,99.90
2023-05-13T20:45:48.606Z,99.90
2023-05-13T20:48:15.584Z,99.90
2023-05-13T20:50:42.224Z,99.90
2023-05-13T20:53:09.481Z,99.90
2023-05-13T20:55:37.297Z,99.90
2023-05-13T20:58:04.540Z,99.90
2023-05-13T21:00:31.227Z,99.90
2023-05-13T21:02:58.371Z,99.90
2023-05-13T21:05:25.983Z,99.90
2023-05-13T21:07:52.692Z,99.90
2023-05-13T21:10:20.034Z,99.90
2023-05-13T21:12:47.977Z,99.90
2023-05-13T21:15:15.451Z,99.90
2023-05-13T21:17:42.194Z,99.90
2023-05-13T21:20:11.559Z,99.90
2023-05-13T21:22:38.264Z,99.90
2023-05-13T21:25:06.835Z,99.90
2023-05-13T21:27:33.572Z,99.90
2023-05-13T21:30:00.817Z,99.90
2023-05-13T21:32:27.485Z,99.90
2023-05-13T21:34:56.127Z,99.90
2023-05-13T21:37:23.056Z,99.90
2023-05-13T21:39:50.288Z,99.90
2023-05-13T21:42:16.907Z,99.90
2023-05-13T21:44:44.328Z,99.90
2023-05-13T21:47:10.931Z,99.90
2023-05-13T21:49:38.259Z,99.90
2023-05-13T21:52:05.544Z,99.90
2023-05-13T21:54:32.953Z,99.90
2023-05-13T21:56:59.585Z,99.90
2023-05-13T21:59:26.998Z,99.90
2023-05-13T22:01:53.669Z,99.90
2023-05-13T22:04:20.888Z,99.90
2023-05-13T22:06:47.472Z,99.90
2023-05-13T22:09:14.752Z,99.90
2023-05-13T22:11:41.368Z,99.90
2023-05-13T22:14:08.614Z,99.90
2023-05-13T22:16:35.307Z,99.90
2023-05-13T22:19:04.550Z,99.90
2023-05-13T22:21:32.335Z,99.90
2023-05-13T22:23:59.770Z,99.90
2023-05-13T22:26:26.351Z,99.90
2023-05-13T22:28:53.691Z,99.90
2023-05-13T22:31:20.361Z,99.90
2023-05-13T22:33:47.651Z,99.90
2023-05-13T22:36:15.376Z,99.90
2023-05-13T22:38:42.946Z,99.90
2023-05-13T22:41:09.544Z,99.90
2023-05-13T22:43:36.787Z,99.90
2023-05-13T22:46:03.911Z,99.90
2023-05-13T22:48:31.195Z,99.90
2023-05-13T22:50:58.276Z,99.90
2023-05-13T22:53:25.833Z,99.90
2023-05-13T22:55:52.712Z,99.90
2023-05-13T22:58:23.112Z,99.90
2023-05-13T23:00:49.915Z,99.90
2023-05-13T23:03:17.511Z,99.90
2023-05-13T23:05:44.180Z,99.90
2023-05-13T23:08:11.531Z,99.90
2023-05-13T23:10:38.154Z,99.90
2023-05-13T23:13:06.036Z,99.90
2023-05-13T23:15:33.097Z,99.90
2023-05-13T23:18:00.419Z,99.90
2023-05-13T23:20:27.139Z,99.90
2023-05-13T23:22:55.281Z,99.90
2023-05-13T23:25:21.948Z,99.90
2023-05-13T23:27:50.540Z,99.90
2023-05-13T23:30:17.463Z,99.90
2023-05-13T23:32:44.920Z,99.90
2023-05-13T23:35:11.918Z,99.90
2023-05-13T23:37:39.260Z,99.90
2023-05-13T23:40:06.690Z,99.90
2023-05-13T23:42:33.941Z,99.90
2023-05-13T23:45:00.612Z,99.90
2023-05-13T23:47:27.981Z,99.90
2023-05-13T23:49:54.699Z,99.90
2023-05-13T23:52:21.947Z,99.90
2023-05-13T23:54:48.560Z,99.90
2023-05-13T23:57:15.859Z,99.90
2023-05-13T23:59:42.487Z,99.90
